Time;durP1;ratioP1;P1;durP2;ratioP2;P2;SDS_P1;SDS_P2;PMS_P1;PMS_P2;Temp;Humidity;BMP_temperature;BMP_pressure;BME280_temperature;BME280_humidity;BME280_pressure;Samples;Min_cycle;Max_cycle;Signal;HPM_P1;HPM_P2
2021/12/09 00:02:28;;;;;;;9.50;6.50;;;;;;;;;;106684;1283;63184;-27
2021/12/09 00:04:57;;;;;;;10.40;6.20;;;;;;;;;;106672;1285;63097;-26
2021/12/09 00:07:24;;;;;;;10.90;6.60;;;;;;;;;;106678;1284;63274;-26
2021/12/09 00:09:51;;;;;;;10.90;6.70;;;;;;;;;;106686;1285;63210;-27
2021/12/09 00:12:18;;;;;;;9.90;6.30;;;;;;;;;;106616;1286;63090;-26
2021/12/09 00:14:45;;;;;;;10.20;6.80;;;;;;;;;;106688;1285;63240;-26
2021/12/09 00:17:12;;;;;;;9.90;6.30;;;;;;;;;;106658;1283;63119;-27
2021/12/09 00:19:39;;;;;;;10.60;6.70;;;;;;;;;;106547;1285;63207;-27
2021/12/09 00:22:07;;;;;;;8.20;6.00;;;;;;;;;;106654;1285;63144;-27
2021/12/09 00:24:34;;;;;;;11.50;6.90;;;;;;;;;;106656;1286;63072;-26
2021/12/09 00:27:02;;;;;;;10.10;6.40;;;;;;;;;;106671;1283;63063;-34
2021/12/09 00:29:29;;;;;;;11.20;6.20;;;;;;;;;;106670;1282;63784;-27
2021/12/09 00:31:56;;;;;;;10.70;6.00;;;;;;;;;;106645;1285;63149;-27
2021/12/09 00:34:30;;;;;;;10.00;6.60;;;;;;;;;;106623;1285;63233;-27
2021/12/09 00:37:15;;;;;;;9.10;5.70;;;;;;;;;;106678;1285;63159;-26
2021/12/09 00:39:44;;;;;;;10.80;6.50;;;;;;;;;;106719;1285;63170;-28
2021/12/09 00:42:10;;;;;;;10.90;6.20;;;;;;;;;;106656;1285;63231;-27
2021/12/09 00:44:38;;;;;;;8.10;5.90;;;;;;;;;;106645;1285;63091;-26
2021/12/09 00:47:06;;;;;;;9.90;6.00;;;;;;;;;;106636;1286;63264;-26
2021/12/09 00:49:33;;;;;;;9.90;6.30;;;;;;;;;;106667;1285;63310;-27
2021/12/09 00:52:00;;;;;;;11.10;6.70;;;;;;;;;;106645;1283;63165;-26
2021/12/09 00:54:28;;;;;;;10.30;6.30;;;;;;;;;;106639;1285;63210;-26
2021/12/09 00:56:55;;;;;;;9.80;6.10;;;;;;;;;;106655;1285;63780;-27
2021/12/09 00:59:22;;;;;;;8.70;6.10;;;;;;;;;;106715;1282;63225;-28
2021/12/09 01:01:49;;;;;;;10.90;6.50;;;;;;;;;;106668;1285;63101;-28
2021/12/09 01:04:16;;;;;;;10.40;6.50;;;;;;;;;;106732;1285;63152;-27
2021/12/09 01:06:43;;;;;;;9.70;6.30;;;;;;;;;;106703;1279;63175;-27
2021/12/09 01:09:10;;;;;;;10.10;6.70;;;;;;;;;;106683;1285;63188;-28
2021/12/09 01:11:37;;;;;;;8.80;5.90;;;;;;;;;;106694;1285;63206;-27
2021/12/09 01:14:04;;;;;;;8.40;5.50;;;;;;;;;;106682;1274;63042;-26
2021/12/09 01:16:31;;;;;;;10.30;6.30;;;;;;;;;;106665;1285;63225;-26
2021/12/09 01:18:58;;;;;;;10.90;6.60;;;;;;;;;;106699;1285;63088;-27
2021/12/09 01:21:25;;;;;;;9.50;5.60;;;;;;;;;;106686;1285;63146;-26
2021/12/09 01:23:52;;;;;;;9.20;5.60;;;;;;;;;;106685;1285;63173;-27
2021/12/09 01:26:19;;;;;;;9.10;5.70;;;;;;;;;;106666;1285;63183;-26
2021/12/09 01:28:55;;;;;;;9.40;6.10;;;;;;;;;;106667;1285;63334;-26
2021/12/09 01:31:27;;;;;;;9.40;6.00;;;;;;;;;;106658;1285;63238;-28
2021/12/09 01:34:00;;;;;;;8.60;5.80;;;;;;;;;;106675;1285;63219;-26
2021/12/09 01:36:27;;;;;;;8.50;5.50;;;;;;;;;;106669;1285;63181;-26
2021/12/09 01:38:54;;;;;;;10.20;6.20;;;;;;;;;;106699;1285;63294;-27
2021/12/09 01:41:21;;;;;;;9.20;5.70;;;;;;;;;;106649;1285;63118;-36
2021/12/09 01:43:48;;;;;;;9.00;5.70;;;;;;;;;;106658;1286;63150;-26
2021/12/09 01:46:17;;;;;;;9.20;5.70;;;;;;;;;;106722;1285;63081;-27
2021/12/09 01:48:45;;;;;;;8.70;5.50;;;;;;;;;;106673;1285;63161;-27
2021/12/09 01:51:13;;;;;;;9.90;5.40;;;;;;;;;;106674;1285;63043;-26
2021/12/09 01:53:41;;;;;;;8.70;5.60;;;;;;;;;;106699;1286;63209;-26
2021/12/09 01:56:09;;;;;;;9.00;5.80;;;;;;;;;;106656;1282;63219;-37
2021/12/09 01:58:37;;;;;;;8.90;5.50;;;;;;;;;;106664;1282;63188;-26
2021/12/09 02:01:05;;;;;;;9.20;5.40;;;;;;;;;;106651;1285;63323;-27
2021/12/09 02:03:32;;;;;;;8.90;5.40;;;;;;;;;;106674;1283;63198;-28
2021/12/09 02:06:00;;;;;;;8.30;5.70;;;;;;;;;;106660;1285;63321;-27
2021/12/09 02:08:27;;;;;;;8.40;5.10;;;;;;;;;;106720;1283;63084;-27
2021/12/09 02:10:55;;;;;;;9.80;5.60;;;;;;;;;;106667;1286;63136;-27
2021/12/09 02:13:22;;;;;;;9.10;5.40;;;;;;;;;;106686;1283;63215;-28
2021/12/09 02:15:52;;;;;;;8.20;5.30;;;;;;;;;;106680;1286;63200;-28
2021/12/09 02:18:21;;;;;;;8.90;5.00;;;;;;;;;;106698;1282;63167;-27
2021/12/09 02:21:09;;;;;;;8.00;5.90;;;;;;;;;;106343;1285;64066;-28
2021/12/09 02:23:37;;;;;;;9.40;5.90;;;;;;;;;;106659;1285;64006;-35
2021/12/09 02:26:04;;;;;;;8.10;5.40;;;;;;;;;;106688;1287;63906;-26
2021/12/09 02:28:32;;;;;;;8.90;5.60;;;;;;;;;;106684;1285;63965;-37
2021/12/09 02:30:59;;;;;;;9.20;5.50;;;;;;;;;;106448;1289;63964;-27
2021/12/09 02:33:27;;;;;;;9.00;5.20;;;;;;;;;;106675;1277;63951;-27
2021/12/09 02:35:54;;;;;;;10.00;5.70;;;;;;;;;;106726;1285;64017;-27
2021/12/09 02:38:22;;;;;;;7.80;5.20;;;;;;;;;;106698;1286;64083;-27
2021/12/09 02:40:50;;;;;;;8.60;5.20;;;;;;;;;;106685;1277;64028;-27
2021/12/09 02:43:23;;;;;;;8.60;5.40;;;;;;;;;;106392;1285;64471;-26
2021/12/09 02:45:52;;;;;;;7.90;5.10;;;;;;;;;;106683;1285;64073;-26
2021/12/09 02:48:20;;;;;;;9.20;5.50;;;;;;;;;;106691;1285;63949;-28
2021/12/09 02:50:48;;;;;;;9.20;5.40;;;;;;;;;;106640;1279;64037;-26
2021/12/09 02:53:15;;;;;;;8.70;5.40;;;;;;;;;;106698;1285;64052;-25
2021/12/09 02:55:43;;;;;;;8.60;5.60;;;;;;;;;;106536;1285;64073;-27
2021/12/09 02:58:10;;;;;;;7.90;5.20;;;;;;;;;;106650;1285;63913;-27
2021/12/09 03:01:13;;;;;;;8.40;5.60;;;;;;;;;;106677;1285;63906;-27
2021/12/09 03:03:49;;;;;;;8.90;5.80;;;;;;;;;;106345;1285;64037;-26
2021/12/09 03:06:17;;;;;;;7.80;5.00;;;;;;;;;;106664;1279;63922;-26
2021/12/09 03:08:44;;;;;;;7.70;4.60;;;;;;;;;;106714;1287;64024;-27
2021/12/09 03:11:14;;;;;;;8.10;5.20;;;;;;;;;;106698;1282;64001;-27
2021/12/09 03:13:42;;;;;;;8.40;5.00;;;;;;;;;;106672;1286;64058;-26
2021/12/09 03:16:09;;;;;;;8.10;5.10;;;;;;;;;;106714;1285;64009;-28
2021/12/09 03:18:41;;;;;;;8.50;5.10;;;;;;;;;;106676;1285;63875;-28
2021/12/09 03:21:18;;;;;;;8.30;5.10;;;;;;;;;;106682;1285;63983;-27
2021/12/09 03:23:46;;;;;;;7.40;4.80;;;;;;;;;;106694;1285;64120;-27
2021/12/09 03:26:13;;;;;;;7.50;4.90;;;;;;;;;;106689;1285;64306;-26
2021/12/09 03:28:40;;;;;;;9.00;5.30;;;;;;;;;;106699;1285;64008;-27
2021/12/09 03:31:07;;;;;;;8.20;5.20;;;;;;;;;;106674;1283;63865;-27
2021/12/09 03:33:34;;;;;;;8.80;5.60;;;;;;;;;;106681;1276;64336;-27
2021/12/09 03:36:04;;;;;;;7.30;4.60;;;;;;;;;;106676;1283;64045;-26
2021/12/09 03:38:31;;;;;;;7.70;5.00;;;;;;;;;;106554;1288;64122;-27
2021/12/09 03:40:58;;;;;;;8.50;5.50;;;;;;;;;;106692;1278;64030;-28
2021/12/09 03:43:25;;;;;;;8.10;5.00;;;;;;;;;;106685;1285;63976;-27
2021/12/09 03:45:55;;;;;;;7.20;4.60;;;;;;;;;;106689;1283;64006;-27
2021/12/09 03:48:23;;;;;;;7.30;4.60;;;;;;;;;;106716;1285;64017;-26
2021/12/09 03:50:50;;;;;;;7.70;4.80;;;;;;;;;;106703;1285;63974;-26
2021/12/09 03:53:17;;;;;;;8.20;5.00;;;;;;;;;;106646;1277;64006;-27
2021/12/09 03:55:44;;;;;;;7.50;4.80;;;;;;;;;;106664;1287;64119;-26
2021/12/09 03:58:11;;;;;;;8.40;5.30;;;;;;;;;;106724;1283;64002;-27
2021/12/09 04:00:39;;;;;;;7.80;5.00;;;;;;;;;;106682;1286;63997;-26
2021/12/09 04:03:07;;;;;;;6.90;4.70;;;;;;;;;;106388;1285;64200;-27
2021/12/09 04:05:34;;;;;;;7.40;4.70;;;;;;;;;;106725;1287;63897;-27
2021/12/09 04:08:03;;;;;;;8.60;5.30;;;;;;;;;;106722;1283;64131;-26
2021/12/09 04:10:34;;;;;;;6.80;4.50;;;;;;;;;;106705;1282;63872;-25
2021/12/09 04:13:01;;;;;;;8.00;4.70;;;;;;;;;;106717;1286;64139;-27
2021/12/09 04:15:28;;;;;;;7.50;4.70;;;;;;;;;;106698;1286;63955;-28
2021/12/09 04:17:55;;;;;;;7.50;4.90;;;;;;;;;;106711;1284;63866;-28
2021/12/09 04:20:22;;;;;;;7.50;4.70;;;;;;;;;;106695;1286;63913;-27
2021/12/09 04:22:49;;;;;;;7.30;4.60;;;;;;;;;;106681;1286;63916;-27
2021/12/09 04:25:18;;;;;;;7.40;4.60;;;;;;;;;;106705;1285;64686;-27
2021/12/09 04:27:46;;;;;;;6.90;4.50;;;;;;;;;;106728;1286;64087;-26
2021/12/09 04:30:13;;;;;;;6.90;4.40;;;;;;;;;;106683;1286;64355;-25
2021/12/09 04:32:40;;;;;;;7.50;4.50;;;;;;;;;;106720;1285;63916;-27
2021/12/09 04:35:09;;;;;;;6.70;4.00;;;;;;;;;;106698;1285;64020;-27
2021/12/09 04:37:36;;;;;;;6.80;4.40;;;;;;;;;;106726;1286;63862;-30
2021/12/09 04:40:06;;;;;;;7.60;4.80;;;;;;;;;;106713;1285;63896;-29
2021/12/09 04:42:34;;;;;;;7.00;4.20;;;;;;;;;;106315;1289;64126;-27
2021/12/09 04:45:02;;;;;;;6.70;4.20;;;;;;;;;;106525;1285;64055;-28
2021/12/09 04:47:30;;;;;;;7.40;4.70;;;;;;;;;;106534;1289;64144;-27
2021/12/09 04:49:57;;;;;;;7.70;5.30;;;;;;;;;;106709;1286;64096;-27
2021/12/09 04:52:27;;;;;;;7.60;4.30;;;;;;;;;;106699;1286;64030;-27
2021/12/09 04:54:56;;;;;;;7.00;4.40;;;;;;;;;;106689;1285;63996;-30
2021/12/09 04:57:23;;;;;;;7.00;4.50;;;;;;;;;;106695;1285;64024;-27
2021/12/09 04:59:51;;;;;;;7.20;4.60;;;;;;;;;;106686;1282;64004;-29
2021/12/09 05:02:28;;;;;;;7.10;4.20;;;;;;;;;;106712;1287;64138;-27
2021/12/09 05:04:55;;;;;;;7.20;4.30;;;;;;;;;;106719;1276;64049;-25
2021/12/09 05:07:22;;;;;;;6.90;3.80;;;;;;;;;;106560;1288;64040;-27
2021/12/09 05:09:51;;;;;;;6.90;4.30;;;;;;;;;;106694;1287;64090;-26
2021/12/09 05:12:19;;;;;;;7.30;4.50;;;;;;;;;;106696;1286;64020;-27
2021/12/09 05:14:47;;;;;;;7.20;4.20;;;;;;;;;;106700;1283;63980;-26
2021/12/09 05:17:16;;;;;;;7.20;4.00;;;;;;;;;;106735;1286;64118;-27
2021/12/09 05:19:44;;;;;;;7.40;4.30;;;;;;;;;;106461;1285;63983;-31
2021/12/09 05:22:11;;;;;;;6.40;3.80;;;;;;;;;;106694;1286;63929;-27
2021/12/09 05:24:40;;;;;;;6.50;3.90;;;;;;;;;;106564;1288;64043;-26
2021/12/09 05:27:09;;;;;;;7.10;4.80;;;;;;;;;;106712;1285;63887;-26
2021/12/09 05:29:39;;;;;;;7.20;4.50;;;;;;;;;;106770;1287;63965;-29
2021/12/09 05:32:13;;;;;;;7.50;4.00;;;;;;;;;;106440;1286;63994;-27
2021/12/09 05:34:42;;;;;;;7.80;4.50;;;;;;;;;;106727;1287;63950;-26
2021/12/09 05:37:11;;;;;;;7.10;3.90;;;;;;;;;;106354;1286;63926;-26
2021/12/09 05:39:37;;;;;;;6.70;3.90;;;;;;;;;;106737;1286;64151;-26
2021/12/09 05:42:06;;;;;;;7.10;4.00;;;;;;;;;;106525;1285;64077;-27
2021/12/09 05:44:33;;;;;;;6.50;4.30;;;;;;;;;;106703;1282;63950;-27
2021/12/09 05:47:02;;;;;;;7.70;4.50;;;;;;;;;;106704;1286;64026;-27
2021/12/09 05:49:29;;;;;;;7.10;4.30;;;;;;;;;;106689;1286;63878;-28
2021/12/09 05:51:56;;;;;;;6.70;4.30;;;;;;;;;;106547;1285;64104;-28
2021/12/09 05:54:23;;;;;;;6.40;3.90;;;;;;;;;;106722;1286;64149;-26
2021/12/09 05:56:50;;;;;;;5.90;3.70;;;;;;;;;;106717;1286;64023;-27
2021/12/09 05:59:18;;;;;;;6.70;3.90;;;;;;;;;;106747;1285;63932;-38
2021/12/09 06:01:45;;;;;;;6.50;4.00;;;;;;;;;;106515;1286;64032;-33
2021/12/09 06:04:12;;;;;;;6.50;3.80;;;;;;;;;;106701;1282;64029;-28
2021/12/09 06:06:40;;;;;;;6.20;4.00;;;;;;;;;;106698;1286;63977;-26
2021/12/09 06:09:08;;;;;;;5.90;3.90;;;;;;;;;;106542;1287;64660;-28
2021/12/09 06:11:36;;;;;;;6.90;4.00;;;;;;;;;;106561;1285;63917;-27
2021/12/09 06:14:05;;;;;;;6.70;4.00;;;;;;;;;;106542;1289;64089;-27
2021/12/09 06:16:34;;;;;;;6.40;4.10;;;;;;;;;;106722;1286;63975;-27
2021/12/09 06:19:01;;;;;;;6.40;3.80;;;;;;;;;;106723;1286;64120;-28
2021/12/09 06:21:29;;;;;;;6.30;4.10;;;;;;;;;;106534;1288;63982;-27
2021/12/09 06:23:57;;;;;;;6.70;4.10;;;;;;;;;;106707;1286;64012;-32
2021/12/09 06:26:24;;;;;;;8.00;4.00;;;;;;;;;;106495;1286;292230;-27
2021/12/09 06:28:51;;;;;;;6.30;3.80;;;;;;;;;;106507;1285;63925;-27
2021/12/09 06:31:19;;;;;;;7.20;4.00;;;;;;;;;;106710;1287;63949;-26
2021/12/09 06:33:47;;;;;;;7.00;4.00;;;;;;;;;;106737;1287;64642;-27
2021/12/09 06:36:14;;;;;;;6.90;4.30;;;;;;;;;;106716;1286;63944;-27
2021/12/09 06:38:41;;;;;;;6.90;3.90;;;;;;;;;;106729;1288;64030;-26
2021/12/09 06:41:08;;;;;;;6.90;3.90;;;;;;;;;;106705;1282;63910;-26
2021/12/09 06:43:40;;;;;;;6.40;3.70;;;;;;;;;;106738;1285;64003;-27
2021/12/09 06:46:08;;;;;;;6.30;4.10;;;;;;;;;;106704;1282;64004;-28
2021/12/09 06:48:36;;;;;;;7.10;3.70;;;;;;;;;;106496;1288;63977;-30
2021/12/09 06:51:05;;;;;;;6.50;4.00;;;;;;;;;;106726;1286;63880;-28
2021/12/09 06:53:33;;;;;;;6.10;4.00;;;;;;;;;;106520;1286;64089;-25
2021/12/09 06:56:00;;;;;;;6.50;3.80;;;;;;;;;;106712;1286;64133;-26
2021/12/09 06:58:27;;;;;;;6.30;3.80;;;;;;;;;;106741;1286;64000;-27
2021/12/09 07:00:54;;;;;;;6.30;4.00;;;;;;;;;;106675;1286;64230;-31
2021/12/09 07:03:21;;;;;;;7.40;4.00;;;;;;;;;;106722;1286;64099;-26
2021/12/09 07:05:49;;;;;;;7.30;4.10;;;;;;;;;;106520;1286;64015;-27
2021/12/09 07:08:16;;;;;;;7.40;4.00;;;;;;;;;;106425;1289;63876;-29
2021/12/09 07:10:44;;;;;;;5.70;3.40;;;;;;;;;;106708;1287;64092;-27
2021/12/09 07:13:11;;;;;;;7.30;4.40;;;;;;;;;;106728;1286;64227;-26
2021/12/09 07:15:39;;;;;;;7.10;4.40;;;;;;;;;;106733;1287;64100;-27
2021/12/09 07:18:06;;;;;;;5.80;3.70;;;;;;;;;;106712;1286;64020;-33
2021/12/09 07:20:33;;;;;;;7.80;3.60;;;;;;;;;;106621;1287;64564;-32
2021/12/09 07:23:01;;;;;;;6.40;3.90;;;;;;;;;;106641;1286;64131;-38
2021/12/09 07:25:28;;;;;;;5.90;3.80;;;;;;;;;;106634;1288;64011;-26
2021/12/09 07:27:56;;;;;;;6.50;3.80;;;;;;;;;;106586;1276;63922;-27
2021/12/09 07:30:24;;;;;;;7.10;4.30;;;;;;;;;;106621;1280;63845;-26
2021/12/09 07:32:51;;;;;;;6.70;4.00;;;;;;;;;;106608;1278;64023;-27
2021/12/09 07:35:18;;;;;;;6.20;3.80;;;;;;;;;;106645;1287;64036;-27
2021/12/09 07:37:45;;;;;;;7.20;4.20;;;;;;;;;;106630;1286;64019;-27
2021/12/09 07:40:15;;;;;;;6.60;3.90;;;;;;;;;;106548;1287;64574;-27
2021/12/09 07:42:42;;;;;;;6.60;4.40;;;;;;;;;;106557;1283;64006;-27
2021/12/09 07:45:10;;;;;;;6.40;4.00;;;;;;;;;;106601;1287;63929;-26
2021/12/09 07:47:37;;;;;;;6.50;3.90;;;;;;;;;;106575;1287;64060;-26
2021/12/09 07:50:07;;;;;;;6.00;4.20;;;;;;;;;;106552;1283;64077;-27
2021/12/09 07:52:34;;;;;;;6.60;4.20;;;;;;;;;;106397;1286;64033;-27
2021/12/09 07:55:01;;;;;;;6.00;3.70;;;;;;;;;;106629;1286;64008;-29
2021/12/09 07:57:29;;;;;;;6.60;4.10;;;;;;;;;;106580;1283;64551;-27
2021/12/09 07:59:56;;;;;;;6.80;3.80;;;;;;;;;;106456;1289;64037;-27
2021/12/09 08:02:23;;;;;;;7.30;4.50;;;;;;;;;;106532;1288;63915;-32
2021/12/09 08:04:55;;;;;;;7.40;4.10;;;;;;;;;;106565;1287;64016;-27
2021/12/09 08:07:25;;;;;;;10.00;4.80;;;;;;;;;;106586;1285;63917;-29
2021/12/09 08:09:52;;;;;;;8.40;4.90;;;;;;;;;;106542;1287;63994;-27
2021/12/09 08:12:19;;;;;;;8.60;5.20;;;;;;;;;;106544;1285;63929;-26
2021/12/09 08:14:46;;;;;;;8.70;5.10;;;;;;;;;;106521;1287;63986;-28
2021/12/09 08:18:26;;;;;;;10.00;5.10;;;;;;;;;;106570;1287;64017;-25
2021/12/09 08:20:17;;;;;;;10.00;5.60;;;;;;;;;;106426;1283;64041;-28
2021/12/09 08:22:45;;;;;;;9.10;5.20;;;;;;;;;;106795;1286;64026;-27
2021/12/09 08:25:13;;;;;;;9.60;5.10;;;;;;;;;;106602;1287;63965;-26
2021/12/09 08:27:45;;;;;;;9.40;5.10;;;;;;;;;;106560;1285;64035;-27
2021/12/09 08:30:14;;;;;;;8.70;5.20;;;;;;;;;;106584;1283;63884;-27
2021/12/09 08:32:41;;;;;;;9.60;5.20;;;;;;;;;;106583;1285;64134;-27
2021/12/09 08:35:10;;;;;;;7.70;4.80;;;;;;;;;;106569;1287;63945;-28
2021/12/09 08:37:38;;;;;;;8.30;4.90;;;;;;;;;;106592;1287;64030;-30
2021/12/09 08:40:06;;;;;;;8.00;4.40;;;;;;;;;;106456;1287;64909;-29
2021/12/09 08:42:33;;;;;;;8.40;5.00;;;;;;;;;;106313;1289;64044;-27
2021/12/09 08:45:00;;;;;;;7.70;4.50;;;;;;;;;;106584;1287;64129;-27
2021/12/09 08:47:27;;;;;;;7.30;4.60;;;;;;;;;;106579;1281;63917;-34
2021/12/09 08:49:54;;;;;;;7.80;5.10;;;;;;;;;;106462;1285;64053;-26
2021/12/09 08:52:21;;;;;;;8.00;5.40;;;;;;;;;;106618;1287;64020;-26
2021/12/09 08:54:48;;;;;;;9.70;4.90;;;;;;;;;;106379;1285;64091;-26
2021/12/09 08:57:15;;;;;;;8.40;4.80;;;;;;;;;;106578;1287;63871;-30
2021/12/09 08:59:42;;;;;;;7.70;4.50;;;;;;;;;;106575;1286;64034;-27
2021/12/09 09:02:09;;;;;;;7.90;4.70;;;;;;;;;;106559;1289;63916;-31
2021/12/09 09:04:36;;;;;;;8.60;4.50;;;;;;;;;;106581;1287;64025;-28
2021/12/09 09:07:04;;;;;;;10.00;5.50;;;;;;;;;;106610;1288;63919;-27
2021/12/09 09:09:34;;;;;;;8.00;4.80;;;;;;;;;;106551;1283;64022;-25
2021/12/09 09:12:03;;;;;;;8.20;4.90;;;;;;;;;;106466;1286;64001;-27
2021/12/09 09:14:30;;;;;;;8.00;4.60;;;;;;;;;;106586;1285;64034;-26
2021/12/09 09:16:58;;;;;;;9.60;5.00;;;;;;;;;;106560;1287;63917;-26
2021/12/09 09:19:25;;;;;;;8.90;4.70;;;;;;;;;;106568;1287;64546;-27
2021/12/09 09:21:52;;;;;;;6.80;4.70;;;;;;;;;;106707;1286;64012;-26
2021/12/09 09:24:19;;;;;;;6.50;4.10;;;;;;;;;;106844;1283;63977;-26
2021/12/09 09:26:47;;;;;;;7.90;5.10;;;;;;;;;;106748;1286;63862;-26
2021/12/09 09:29:14;;;;;;;7.10;4.90;;;;;;;;;;106725;1283;64035;-26
2021/12/09 09:31:42;;;;;;;7.50;4.70;;;;;;;;;;106555;1283;64127;-27
2021/12/09 09:34:11;;;;;;;9.60;5.20;;;;;;;;;;106597;1288;64026;-26
2021/12/09 09:36:44;;;;;;;7.50;4.90;;;;;;;;;;106568;1283;63906;-26
2021/12/09 09:39:21;;;;;;;7.20;4.70;;;;;;;;;;106585;1287;64023;-27
2021/12/09 09:42:06;;;;;;;7.80;5.20;;;;;;;;;;106479;1285;64357;-28
2021/12/09 09:44:46;;;;;;;7.10;4.60;;;;;;;;;;106578;1288;64124;-27
2021/12/09 09:47:14;;;;;;;6.40;4.70;;;;;;;;;;106430;1285;63958;-26
2021/12/09 09:49:41;;;;;;;6.90;4.60;;;;;;;;;;106979;1279;64077;-30
2021/12/09 09:52:09;;;;;;;6.60;4.30;;;;;;;;;;106865;1283;64015;-25
2021/12/09 09:54:36;;;;;;;8.40;4.50;;;;;;;;;;106814;1285;64535;-26
2021/12/09 09:57:05;;;;;;;6.80;4.70;;;;;;;;;;106983;1283;64043;-26
2021/12/09 09:59:32;;;;;;;6.80;4.50;;;;;;;;;;106961;1282;64141;-26
2021/12/09 10:01:59;;;;;;;8.00;4.70;;;;;;;;;;106873;1279;64032;-27
2021/12/09 10:04:33;;;;;;;6.90;4.30;;;;;;;;;;106973;1279;64021;-27
2021/12/09 10:07:00;;;;;;;6.60;4.50;;;;;;;;;;106959;1282;64564;-25
2021/12/09 10:09:27;;;;;;;6.90;4.70;;;;;;;;;;107006;1279;63913;-27
2021/12/09 10:11:59;;;;;;;7.80;5.10;;;;;;;;;;106973;1283;63909;-26
2021/12/09 10:14:27;;;;;;;7.90;5.00;;;;;;;;;;106978;1279;63876;-33
2021/12/09 10:17:04;;;;;;;7.60;4.80;;;;;;;;;;106938;1280;64014;-31
2021/12/09 10:19:31;;;;;;;6.90;4.70;;;;;;;;;;106953;1277;63916;-26
2021/12/09 10:22:11;;;;;;;7.60;4.90;;;;;;;;;;106981;1279;64055;-25
2021/12/09 10:24:39;;;;;;;7.20;4.60;;;;;;;;;;107042;1282;63922;-26
2021/12/09 10:27:07;;;;;;;6.60;4.40;;;;;;;;;;106954;1283;63896;-26
2021/12/09 10:29:45;;;;;;;8.00;5.30;;;;;;;;;;106983;1283;64164;-26
2021/12/09 10:32:17;;;;;;;8.00;4.70;;;;;;;;;;106949;1280;64384;-26
2021/12/09 10:34:46;;;;;;;8.50;5.20;;;;;;;;;;106985;1283;63974;-26
2021/12/09 10:37:16;;;;;;;7.00;4.70;;;;;;;;;;106986;1283;64019;-26
2021/12/09 10:39:54;;;;;;;7.20;4.80;;;;;;;;;;106972;1280;64342;-26
2021/12/09 10:42:22;;;;;;;7.70;4.80;;;;;;;;;;106964;1283;64000;-26
2021/12/09 10:44:59;;;;;;;7.90;4.90;;;;;;;;;;107027;1282;63894;-26
2021/12/09 10:50:21;;;;;;;7.80;5.10;;;;;;;;;;106947;1281;63958;-32
2021/12/09 10:52:50;;;;;;;8.10;5.30;;;;;;;;;;106986;1279;64028;-26
2021/12/09 10:55:21;;;;;;;7.60;5.20;;;;;;;;;;106978;1280;64460;-26
2021/12/09 10:58:05;;;;;;;7.10;5.10;;;;;;;;;;106847;1274;64111;-26
2021/12/09 11:00:34;;;;;;;8.00;5.00;;;;;;;;;;107002;1280;64036;-25
2021/12/09 11:03:13;;;;;;;7.10;5.00;;;;;;;;;;106950;1279;63885;-26
2021/12/09 11:05:42;;;;;;;7.90;5.30;;;;;;;;;;106987;1273;64142;-26
2021/12/09 11:08:12;;;;;;;8.00;5.40;;;;;;;;;;106967;1279;64019;-27
2021/12/09 11:10:46;;;;;;;8.50;5.20;;;;;;;;;;106868;1283;64022;-27
2021/12/09 11:13:14;;;;;;;7.50;4.80;;;;;;;;;;106852;1282;63975;-27
2021/12/09 11:15:52;;;;;;;7.30;5.30;;;;;;;;;;106874;1282;64031;-26
2021/12/09 11:18:41;;;;;;;7.00;4.60;;;;;;;;;;106847;1282;64093;-26
2021/12/09 11:21:21;;;;;;;8.40;5.60;;;;;;;;;;106953;1281;64123;-27
2021/12/09 11:23:52;;;;;;;7.70;5.20;;;;;;;;;;107011;1274;64359;-26
2021/12/09 11:26:28;;;;;;;7.90;5.10;;;;;;;;;;107011;1280;63903;-27
2021/12/09 11:29:00;;;;;;;7.80;5.60;;;;;;;;;;106972;1279;64023;-28
2021/12/09 11:31:32;;;;;;;7.00;5.10;;;;;;;;;;106949;1281;64016;-26
2021/12/09 11:34:04;;;;;;;7.10;4.80;;;;;;;;;;106983;1283;64105;-27
2021/12/09 11:36:43;;;;;;;8.20;5.10;;;;;;;;;;107009;1280;64070;-28
2021/12/09 11:39:15;;;;;;;8.00;5.00;;;;;;;;;;106970;1280;63956;-26
2021/12/09 11:41:43;;;;;;;8.20;5.10;;;;;;;;;;106967;1279;64032;-26
2021/12/09 11:44:10;;;;;;;8.10;5.80;;;;;;;;;;106991;1279;64000;-27
2021/12/09 11:46:39;;;;;;;7.00;4.90;;;;;;;;;;106985;1282;64046;-26
2021/12/09 11:49:08;;;;;;;7.60;5.10;;;;;;;;;;106961;1280;63998;-27
2021/12/09 11:51:36;;;;;;;7.50;5.00;;;;;;;;;;106959;1280;63896;-27
2021/12/09 11:54:05;;;;;;;7.90;5.60;;;;;;;;;;106990;1280;63949;-26
2021/12/09 12:12:46;;;;;;;6.60;5.00;;;;;;;;;;106950;1280;63910;-31
2021/12/09 12:15:33;;;;;;;8.00;5.10;;;;;;;;;;106875;1282;63962;-25
2021/12/09 12:21:46;;;;;;;7.00;5.00;;;;;;;;;;106733;1283;63977;-25
2021/12/09 12:27:13;;;;;;;8.00;5.70;;;;;;;;;;106971;1280;64794;-26
2021/12/09 12:40:52;;;;;;;7.40;4.90;;;;;;;;;;106969;1281;63993;-26
2021/12/09 12:43:33;;;;;;;7.80;5.30;;;;;;;;;;106961;1279;64004;-26
2021/12/09 12:54:05;;;;;;;7.70;5.10;;;;;;;;;;106798;1281;64359;-34
2021/12/09 12:56:40;;;;;;;8.10;5.10;;;;;;;;;;106968;1282;64010;-27
2021/12/09 12:59:07;;;;;;;6.80;4.90;;;;;;;;;;106950;1279;64007;-28
2021/12/09 13:01:36;;;;;;;7.00;4.80;;;;;;;;;;106956;1280;63997;-27
2021/12/09 13:04:24;;;;;;;7.60;4.90;;;;;;;;;;106958;1279;64334;-27
2021/12/09 13:06:58;;;;;;;7.40;5.00;;;;;;;;;;106958;1279;64041;-27
2021/12/09 13:09:39;;;;;;;8.20;5.30;;;;;;;;;;106890;1281;63924;-27
2021/12/09 13:12:10;;;;;;;7.40;5.20;;;;;;;;;;106976;1279;63984;-26
2021/12/09 13:15:04;;;;;;;7.40;5.20;;;;;;;;;;106979;1276;64017;-26
2021/12/09 13:17:36;;;;;;;8.10;4.90;;;;;;;;;;106458;1273;64830;-25
2021/12/09 13:20:10;;;;;;;8.00;5.60;;;;;;;;;;106962;1279;64114;-25
2021/12/09 13:22:40;;;;;;;7.90;5.30;;;;;;;;;;106899;1282;64113;-26
2021/12/09 13:25:16;;;;;;;7.60;4.90;;;;;;;;;;106965;1280;64291;-26
2021/12/09 13:28:02;;;;;;;7.70;5.10;;;;;;;;;;106893;1282;64019;-25
2021/12/09 13:46:32;;;;;;;8.80;5.70;;;;;;;;;;106904;1282;64021;-25
2021/12/09 13:49:54;;;;;;;8.90;5.60;;;;;;;;;;106955;1280;64360;-25
2021/12/09 13:54:02;;;;;;;7.40;5.70;;;;;;;;;;106845;1279;64010;-26
2021/12/09 13:54:53;;;;;;;8.80;6.00;;;;;;;;;;106991;1282;64052;-24
2021/12/09 13:57:28;;;;;;;8.60;6.50;;;;;;;;;;106997;1279;64003;-25
2021/12/09 13:59:56;;;;;;;8.70;5.60;;;;;;;;;;106961;1282;64051;-26
2021/12/09 14:02:23;;;;;;;10.10;6.10;;;;;;;;;;106949;1280;64008;-26
2021/12/09 14:04:52;;;;;;;8.60;6.10;;;;;;;;;;106992;1280;64029;-28
2021/12/09 14:07:25;;;;;;;10.40;6.30;;;;;;;;;;106946;1282;63927;-27
2021/12/09 14:09:57;;;;;;;9.30;5.90;;;;;;;;;;106995;1281;65090;-28
2021/12/09 14:12:26;;;;;;;9.40;7.00;;;;;;;;;;106983;1283;63971;-28
2021/12/09 14:15:07;;;;;;;8.60;6.20;;;;;;;;;;107008;1279;64034;-27
2021/12/09 14:17:38;;;;;;;9.10;6.10;;;;;;;;;;106957;1280;63918;-24
2021/12/09 14:20:15;;;;;;;9.40;6.90;;;;;;;;;;106868;1285;63964;-23
2021/12/09 14:22:44;;;;;;;10.70;6.60;;;;;;;;;;107005;1282;63987;-24
2021/12/09 14:25:14;;;;;;;10.20;6.70;;;;;;;;;;106963;1273;64023;-29
2021/12/09 14:27:42;;;;;;;8.70;6.00;;;;;;;;;;106769;1275;242175;-28
2021/12/09 14:30:12;;;;;;;8.70;6.10;;;;;;;;;;106984;1279;63911;-29
2021/12/09 14:32:44;;;;;;;8.60;6.50;;;;;;;;;;106968;1282;63919;-28
2021/12/09 14:35:19;;;;;;;9.50;6.50;;;;;;;;;;106956;1279;64007;-28
2021/12/09 14:37:48;;;;;;;9.70;6.40;;;;;;;;;;106953;1281;63868;-27
2021/12/09 14:40:19;;;;;;;9.60;6.10;;;;;;;;;;106950;1274;63970;-32
2021/12/09 14:42:53;;;;;;;8.80;6.30;;;;;;;;;;106959;1282;64106;-26
2021/12/09 14:45:22;;;;;;;9.50;6.60;;;;;;;;;;106961;1281;63913;-26
2021/12/09 14:48:03;;;;;;;8.90;6.00;;;;;;;;;;106935;1280;63903;-27
2021/12/09 14:50:35;;;;;;;9.80;6.40;;;;;;;;;;106922;1280;64020;-27
2021/12/09 14:53:03;;;;;;;9.30;6.40;;;;;;;;;;107004;1280;64068;-32
2021/12/09 14:55:31;;;;;;;9.70;6.10;;;;;;;;;;106969;1279;64002;-28
2021/12/09 14:58:08;;;;;;;8.80;6.50;;;;;;;;;;106968;1279;63995;-27
2021/12/09 15:00:35;;;;;;;9.20;6.40;;;;;;;;;;106929;1279;64047;-27
2021/12/09 15:03:03;;;;;;;9.60;6.80;;;;;;;;;;106887;1280;65124;-27
2021/12/09 15:05:32;;;;;;;8.20;5.90;;;;;;;;;;106891;1282;63951;-26
2021/12/09 15:08:05;;;;;;;8.70;6.20;;;;;;;;;;106955;1280;63945;-35
2021/12/09 15:10:33;;;;;;;10.00;6.10;;;;;;;;;;106973;1283;64448;-27
2021/12/09 15:13:02;;;;;;;9.00;6.40;;;;;;;;;;106953;1282;63896;-29
2021/12/09 15:15:32;;;;;;;9.40;6.70;;;;;;;;;;106958;1283;64018;-26
2021/12/09 15:18:07;;;;;;;9.00;6.70;;;;;;;;;;106878;1282;64074;-26
2021/12/09 15:20:41;;;;;;;8.90;6.60;;;;;;;;;;106923;1284;64003;-31
2021/12/09 15:23:22;;;;;;;8.70;6.10;;;;;;;;;;106985;1280;65118;-26
2021/12/09 15:25:49;;;;;;;9.00;7.00;;;;;;;;;;106968;1280;64036;-41
2021/12/09 15:28:18;;;;;;;10.00;6.40;;;;;;;;;;106949;1283;63892;-26
2021/12/09 15:30:51;;;;;;;8.00;6.00;;;;;;;;;;106968;1282;64103;-28
2021/12/09 15:33:36;;;;;;;11.30;6.80;;;;;;;;;;106948;1283;63941;-25
2021/12/09 15:36:05;;;;;;;9.50;6.70;;;;;;;;;;106970;1280;63923;-28
2021/12/09 15:38:32;;;;;;;10.70;7.00;;;;;;;;;;106874;1282;63978;-27
2021/12/09 15:41:00;;;;;;;9.50;6.60;;;;;;;;;;106980;1280;63964;-28
2021/12/09 15:43:27;;;;;;;9.90;6.90;;;;;;;;;;106975;1281;64349;-26
2021/12/09 15:46:12;;;;;;;9.50;7.10;;;;;;;;;;106957;1282;64110;-26